Time;durP1;ratioP1;P1;durP2;ratioP2;P2;SDS_P1;SDS_P2;PMS_P1;PMS_P2;Temp;Humidity;BMP_temperature;BMP_pressure;BME280_temperature;BME280_humidity;BME280_pressure;Samples;Min_cycle;Max_cycle;Signal;HPM_P1;HPM_P2
2023/10/22 00:00:09;;;;;;;;;;;13.10;99.90;;;;;;4862470;29;20251;-85
2023/10/22 00:02:35;;;;;;;;;;;13.10;99.90;;;;;;4860955;29;20361;-85
2023/10/22 00:05:01;;;;;;;;;;;13.10;99.90;;;;;;4860934;29;19975;-84
2023/10/22 00:07:27;;;;;;;;;;;13.10;99.90;;;;;;4860714;29;19947;-89
2023/10/22 00:09:54;;;;;;;;;;;13.10;99.90;;;;;;4860571;29;20280;-86
2023/10/22 00:12:20;;;;;;;;;;;13.20;99.90;;;;;;4860506;29;19940;-86
2023/10/22 00:14:45;;;;;;;;;;;13.10;99.90;;;;;;4860864;29;20263;-85
2023/10/22 00:17:11;;;;;;;;;;;13.10;99.90;;;;;;4845198;29;19925;-88
2023/10/22 00:19:36;;;;;;;;;;;13.20;99.90;;;;;;4862012;29;19924;-85
2023/10/22 00:22:02;;;;;;;;;;;13.20;99.90;;;;;;4860706;29;20332;-87
2023/10/22 00:24:28;;;;;;;;;;;13.20;99.90;;;;;;4861699;29;19924;-86
2023/10/22 00:26:54;;;;;;;;;;;13.20;99.90;;;;;;4860284;29;19924;-86
2023/10/22 00:29:19;;;;;;;;;;;13.20;99.90;;;;;;4844959;29;20437;-89
2023/10/22 00:31:45;;;;;;;;;;;13.10;99.90;;;;;;4860118;29;19924;-84
2023/10/22 00:34:10;;;;;;;;;;;13.10;99.90;;;;;;4860419;29;19924;-85
2023/10/22 00:36:36;;;;;;;;;;;13.10;99.90;;;;;;4863425;29;19925;-86
2023/10/22 00:39:01;;;;;;;;;;;13.10;99.90;;;;;;4861515;29;19931;-86
2023/10/22 00:41:27;;;;;;;;;;;13.10;99.90;;;;;;4844996;29;20019;-87
2023/10/22 00:43:52;;;;;;;;;;;13.00;99.90;;;;;;4860352;29;20313;-84
2023/10/22 00:46:22;;;;;;;;;;;13.00;99.90;;;;;;4860794;29;19931;-86
2023/10/22 00:48:47;;;;;;;;;;;13.00;99.90;;;;;;4860325;29;19935;-85
2023/10/22 00:51:13;;;;;;;;;;;12.90;99.90;;;;;;4863014;29;19924;-86
2023/10/22 00:53:40;;;;;;;;;;;12.90;99.90;;;;;;4864200;29;19924;-85
2023/10/22 00:56:05;;;;;;;;;;;12.80;99.90;;;;;;4864201;29;20352;-85
2023/10/22 00:58:33;;;;;;;;;;;12.80;99.90;;;;;;4865192;29;19930;-87
2023/10/22 01:00:58;;;;;;;;;;;12.80;99.90;;;;;;4864183;29;20385;-85
2023/10/22 01:03:24;;;;;;;;;;;12.80;99.90;;;;;;4848513;29;19924;-86
2023/10/22 01:05:50;;;;;;;;;;;12.80;99.90;;;;;;4864284;29;19924;-86
2023/10/22 01:08:15;;;;;;;;;;;12.80;99.90;;;;;;4863986;29;19976;-86
2023/10/22 01:10:41;;;;;;;;;;;12.80;99.90;;;;;;4864860;29;19997;-87
2023/10/22 01:13:07;;;;;;;;;;;12.80;99.90;;;;;;4863663;29;19929;-87
2023/10/22 01:15:32;;;;;;;;;;;12.80;99.90;;;;;;4863388;29;19924;-86
2023/10/22 01:17:58;;;;;;;;;;;12.80;99.90;;;;;;4849048;29;19931;-85
2023/10/22 01:20:23;;;;;;;;;;;12.80;99.90;;;;;;4848597;29;20368;-86
2023/10/22 01:22:49;;;;;;;;;;;12.80;99.90;;;;;;4863671;29;20067;-85
2023/10/22 01:25:15;;;;;;;;;;;12.80;99.90;;;;;;4865049;29;19925;-87
2023/10/22 01:27:40;;;;;;;;;;;12.80;99.90;;;;;;4865196;29;19924;-86
2023/10/22 01:30:06;;;;;;;;;;;12.80;99.90;;;;;;4863380;29;20067;-86
2023/10/22 01:32:33;;;;;;;;;;;12.80;99.90;;;;;;4864316;29;20306;-89
2023/10/22 01:34:59;;;;;;;;;;;12.80;99.90;;;;;;4863615;29;19980;-88
2023/10/22 01:37:25;;;;;;;;;;;12.70;99.90;;;;;;4863272;29;19925;-87
2023/10/22 01:39:51;;;;;;;;;;;12.60;99.90;;;;;;4864312;29;19924;-86
2023/10/22 01:42:17;;;;;;;;;;;12.60;99.90;;;;;;4863168;29;19928;-86
2023/10/22 01:44:43;;;;;;;;;;;12.50;99.90;;;;;;4848498;29;20014;-87
2023/10/22 01:47:10;;;;;;;;;;;12.40;99.90;;;;;;4864240;29;19974;-86
2023/10/22 01:49:36;;;;;;;;;;;12.30;99.90;;;;;;4863046;29;19927;-86
2023/10/22 01:52:02;;;;;;;;;;;12.30;99.90;;;;;;4848667;29;19976;-88
2023/10/22 01:54:28;;;;;;;;;;;12.20;99.90;;;;;;4863707;29;19935;-85
2023/10/22 01:56:53;;;;;;;;;;;12.20;99.90;;;;;;4863154;29;19928;-85
2023/10/22 01:59:19;;;;;;;;;;;12.20;99.90;;;;;;4863325;29;19931;-85
2023/10/22 02:01:44;;;;;;;;;;;12.10;99.90;;;;;;4863979;29;19931;-86
2023/10/22 02:04:10;;;;;;;;;;;12.10;99.90;;;;;;4863994;29;19924;-85
2023/10/22 02:06:36;;;;;;;;;;;12.10;99.90;;;;;;4862806;29;19931;-86
2023/10/22 02:09:02;;;;;;;;;;;12.10;99.90;;;;;;4862715;29;20027;-86
2023/10/22 02:11:28;;;;;;;;;;;12.10;99.90;;;;;;4862448;29;19928;-86
2023/10/22 02:13:53;;;;;;;;;;;12.10;99.90;;;;;;4863903;29;20403;-87
2023/10/22 02:16:19;;;;;;;;;;;12.10;99.90;;;;;;4862432;29;19931;-84
2023/10/22 02:18:45;;;;;;;;;;;12.10;99.90;;;;;;4862677;29;19970;-86
2023/10/22 02:21:11;;;;;;;;;;;12.10;99.90;;;;;;4864746;29;19924;-85
2023/10/22 02:23:39;;;;;;;;;;;12.10;99.90;;;;;;4862908;29;19924;-88
2023/10/22 02:26:05;;;;;;;;;;;12.00;99.90;;;;;;4864242;29;19984;-85
2023/10/22 02:28:31;;;;;;;;;;;12.00;99.90;;;;;;4848394;29;20332;-86
2023/10/22 02:30:56;;;;;;;;;;;12.00;99.90;;;;;;4862394;29;20022;-84
2023/10/22 02:33:22;;;;;;;;;;;12.00;99.90;;;;;;4847148;29;20006;-86
2023/10/22 02:35:48;;;;;;;;;;;11.90;99.90;;;;;;4863081;29;20027;-87
2023/10/22 02:38:17;;;;;;;;;;;11.90;99.90;;;;;;4847044;29;19967;-87
2023/10/22 02:40:43;;;;;;;;;;;11.90;99.90;;;;;;4862244;29;19924;-87
2023/10/22 02:43:09;;;;;;;;;;;11.90;99.90;;;;;;4862838;29;19924;-87
2023/10/22 02:45:34;;;;;;;;;;;11.80;99.90;;;;;;4861889;29;19993;-84
2023/10/22 02:48:00;;;;;;;;;;;11.80;99.90;;;;;;4862154;29;20015;-84
2023/10/22 02:50:26;;;;;;;;;;;11.80;99.90;;;;;;4862185;29;19924;-85
2023/10/22 02:52:52;;;;;;;;;;;11.90;99.90;;;;;;4862255;29;19931;-85
2023/10/22 02:55:18;;;;;;;;;;;11.80;99.90;;;;;;4861986;29;19928;-86
2023/10/22 02:57:43;;;;;;;;;;;11.80;99.90;;;;;;4862419;29;19968;-85
2023/10/22 03:00:12;;;;;;;;;;;11.80;99.90;;;;;;4847587;29;20027;-86
2023/10/22 03:02:39;;;;;;;;;;;11.90;99.90;;;;;;4862015;29;19972;-86
2023/10/22 03:05:05;;;;;;;;;;;11.90;99.90;;;;;;4862056;29;19924;-85
2023/10/22 03:07:30;;;;;;;;;;;11.90;99.90;;;;;;4862045;29;19931;-86
2023/10/22 03:09:56;;;;;;;;;;;11.90;99.90;;;;;;4863526;29;19931;-87
2023/10/22 03:12:22;;;;;;;;;;;11.90;99.90;;;;;;4860959;29;20382;-86
2023/10/22 03:14:50;;;;;;;;;;;11.90;99.90;;;;;;4863634;29;19989;-87
2023/10/22 03:17:16;;;;;;;;;;;11.90;99.90;;;;;;4828633;29;19934;-85
2023/10/22 03:19:42;;;;;;;;;;;11.90;99.90;;;;;;4811861;29;19929;-85
2023/10/22 03:22:08;;;;;;;;;;;11.90;99.90;;;;;;4826740;29;20003;-84
2023/10/22 03:24:34;;;;;;;;;;;11.90;99.90;;;;;;4827146;29;20033;-86
2023/10/22 03:27:00;;;;;;;;;;;11.90;99.90;;;;;;4826437;29;19929;-86
2023/10/22 03:29:25;;;;;;;;;;;11.90;99.90;;;;;;4824959;29;20306;-86
2023/10/22 03:31:52;;;;;;;;;;;11.90;99.90;;;;;;4824642;29;19932;-87
2023/10/22 03:34:17;;;;;;;;;;;11.90;99.90;;;;;;4810383;29;19928;-83
2023/10/22 03:36:44;;;;;;;;;;;11.90;99.90;;;;;;4825435;29;19931;-85
2023/10/22 03:39:10;;;;;;;;;;;11.90;99.90;;;;;;4826173;29;19925;-83
2023/10/22 03:41:36;;;;;;;;;;;11.90;99.90;;;;;;4825920;29;20044;-87
2023/10/22 03:44:01;;;;;;;;;;;11.90;99.90;;;;;;4825031;29;19925;-83
2023/10/22 03:46:27;;;;;;;;;;;11.90;99.90;;;;;;4825004;29;19929;-82
2023/10/22 03:48:53;;;;;;;;;;;11.90;99.90;;;;;;4825165;29;20285;-87
2023/10/22 03:51:18;;;;;;;;;;;11.90;99.90;;;;;;4824561;29;19925;-83
2023/10/22 03:53:44;;;;;;;;;;;11.90;99.90;;;;;;4824706;29;19973;-89
2023/10/22 03:56:10;;;;;;;;;;;11.90;99.90;;;;;;4825684;29;20136;-82
2023/10/22 03:58:35;;;;;;;;;;;11.90;99.90;;;;;;4824725;29;20234;-87
2023/10/22 04:01:01;;;;;;;;;;;11.90;99.90;;;;;;4825520;29;20021;-83
2023/10/22 04:03:27;;;;;;;;;;;11.90;99.90;;;;;;4825491;29;20402;-87
2023/10/22 04:05:56;;;;;;;;;;;11.90;99.90;;;;;;4825477;29;20016;-84
2023/10/22 04:08:23;;;;;;;;;;;11.90;99.90;;;;;;4824625;29;19925;-83
2023/10/22 04:10:48;;;;;;;;;;;11.90;99.90;;;;;;4825665;29;19932;-82
2023/10/22 04:13:14;;;;;;;;;;;11.90;99.90;;;;;;4824388;29;20377;-86
2023/10/22 04:15:40;;;;;;;;;;;11.90;99.90;;;;;;4836978;29;19924;-85
2023/10/22 04:18:06;;;;;;;;;;;11.90;99.90;;;;;;4862382;29;19924;-86
2023/10/22 04:20:33;;;;;;;;;;;11.90;99.90;;;;;;4861470;29;20293;-84
2023/10/22 04:22:58;;;;;;;;;;;11.90;99.90;;;;;;4861007;29;20345;-86
2023/10/22 04:25:25;;;;;;;;;;;11.90;99.90;;;;;;4861366;29;20368;-87
2023/10/22 04:27:50;;;;;;;;;;;11.90;99.90;;;;;;4860384;29;19924;-85
2023/10/22 04:30:16;;;;;;;;;;;11.90;99.90;;;;;;4860526;29;19924;-85
2023/10/22 04:32:41;;;;;;;;;;;11.90;99.90;;;;;;4861500;29;20419;-88
2023/10/22 04:35:07;;;;;;;;;;;11.90;99.90;;;;;;4860471;29;19971;-84
2023/10/22 04:37:33;;;;;;;;;;;11.90;99.90;;;;;;4861385;29;20015;-84
2023/10/22 04:39:58;;;;;;;;;;;12.00;99.90;;;;;;4861825;29;19986;-85
2023/10/22 04:42:24;;;;;;;;;;;11.90;99.90;;;;;;4861314;29;20276;-86
2023/10/22 04:44:50;;;;;;;;;;;12.00;99.90;;;;;;4861391;29;19931;-85
2023/10/22 04:47:16;;;;;;;;;;;12.00;99.90;;;;;;4861287;29;20317;-87
2023/10/22 04:49:43;;;;;;;;;;;12.00;99.90;;;;;;4862692;29;20365;-86
2023/10/22 04:52:10;;;;;;;;;;;12.00;99.90;;;;;;4862093;29;20039;-84
2023/10/22 04:54:36;;;;;;;;;;;12.00;99.90;;;;;;4845047;29;19924;-86
2023/10/22 04:57:05;;;;;;;;;;;12.00;99.90;;;;;;4860772;29;19924;-85
2023/10/22 04:59:30;;;;;;;;;;;12.00;99.90;;;;;;4862222;29;20023;-86
2023/10/22 05:01:56;;;;;;;;;;;12.00;99.90;;;;;;4861515;29;20023;-86
2023/10/22 05:04:21;;;;;;;;;;;12.00;99.90;;;;;;4860470;29;20327;-86
2023/10/22 05:06:47;;;;;;;;;;;12.00;99.90;;;;;;4863273;29;19993;-83
2023/10/22 05:09:13;;;;;;;;;;;12.10;99.90;;;;;;4861946;29;19924;-85
2023/10/22 05:11:39;;;;;;;;;;;12.10;99.90;;;;;;4859951;29;19924;-84
2023/10/22 05:14:04;;;;;;;;;;;12.10;99.90;;;;;;4860092;29;19924;-86
2023/10/22 05:16:30;;;;;;;;;;;12.10;99.90;;;;;;4860156;29;20056;-83
2023/10/22 05:18:55;;;;;;;;;;;12.10;99.90;;;;;;4861257;29;19986;-84
2023/10/22 05:21:21;;;;;;;;;;;12.10;99.90;;;;;;4861703;29;20026;-86
2023/10/22 05:23:46;;;;;;;;;;;12.10;99.90;;;;;;4860542;29;19974;-83
2023/10/22 05:26:12;;;;;;;;;;;12.10;99.90;;;;;;4861112;29;19931;-86
2023/10/22 05:28:38;;;;;;;;;;;12.10;99.90;;;;;;4860156;29;19928;-87
2023/10/22 05:31:11;;;;;;;;;;;12.10;99.90;;;;;;4859700;29;19931;-85
2023/10/22 05:33:37;;;;;;;;;;;12.20;99.90;;;;;;4861118;29;20558;-86
2023/10/22 05:36:03;;;;;;;;;;;12.20;99.90;;;;;;4861327;29;19924;-85
2023/10/22 05:38:28;;;;;;;;;;;12.20;99.90;;;;;;4863192;29;20064;-85
2023/10/22 05:40:54;;;;;;;;;;;12.20;99.90;;;;;;4863177;29;20068;-85
2023/10/22 05:43:20;;;;;;;;;;;12.20;99.90;;;;;;4847700;29;19931;-86
2023/10/22 05:45:45;;;;;;;;;;;12.20;99.90;;;;;;4863887;29;19972;-85
2023/10/22 05:48:11;;;;;;;;;;;12.20;99.90;;;;;;4847721;29;19924;-84
2023/10/22 05:50:37;;;;;;;;;;;12.20;99.90;;;;;;4863063;29;20387;-85
2023/10/22 05:53:03;;;;;;;;;;;12.10;99.90;;;;;;4848333;29;19977;-89
2023/10/22 05:55:29;;;;;;;;;;;12.00;99.90;;;;;;4847571;29;19928;-84
2023/10/22 05:57:54;;;;;;;;;;;11.80;99.90;;;;;;4863813;29;19925;-85
2023/10/22 06:00:20;;;;;;;;;;;11.70;99.90;;;;;;4863101;29;20249;-84
2023/10/22 06:02:45;;;;;;;;;;;11.60;99.90;;;;;;4863988;29;19967;-84
2023/10/22 06:05:14;;;;;;;;;;;11.60;99.90;;;;;;4863956;29;19948;-82
2023/10/22 06:07:39;;;;;;;;;;;11.60;99.90;;;;;;4863008;29;19924;-87
2023/10/22 06:10:05;;;;;;;;;;;11.50;99.90;;;;;;4862516;29;19924;-87
2023/10/22 06:12:31;;;;;;;;;;;11.50;99.90;;;;;;4862970;29;19932;-85
2023/10/22 06:15:03;;;;;;;;;;;11.50;99.90;;;;;;4862548;29;19924;-84
2023/10/22 06:17:31;;;;;;;;;;;11.50;99.90;;;;;;4846640;29;19997;-85
2023/10/22 06:19:57;;;;;;;;;;;11.50;99.90;;;;;;4862477;29;19924;-88
2023/10/22 06:22:23;;;;;;;;;;;11.50;99.90;;;;;;4863259;29;19930;-85
2023/10/22 06:24:48;;;;;;;;;;;11.50;99.90;;;;;;4863263;29;19924;-84
2023/10/22 06:27:14;;;;;;;;;;;11.40;99.90;;;;;;4862311;29;20280;-85
2023/10/22 06:29:39;;;;;;;;;;;11.40;99.90;;;;;;4863043;29;19924;-85
2023/10/22 06:32:05;;;;;;;;;;;11.40;99.90;;;;;;4861943;29;20019;-87
2023/10/22 06:34:31;;;;;;;;;;;11.40;99.90;;;;;;4862027;29;19924;-86
2023/10/22 06:36:56;;;;;;;;;;;11.40;99.90;;;;;;4863151;29;19924;-86
2023/10/22 06:39:22;;;;;;;;;;;11.40;99.90;;;;;;4862118;29;19935;-85
2023/10/22 06:41:47;;;;;;;;;;;11.40;99.90;;;;;;4862326;29;20209;-88
2023/10/22 06:44:13;;;;;;;;;;;11.40;99.90;;;;;;4862031;29;19924;-87
2023/10/22 06:46:38;;;;;;;;;;;11.40;99.90;;;;;;4861858;29;19932;-85
2023/10/22 06:49:04;;;;;;;;;;;11.40;99.90;;;;;;4861458;29;20007;-84
2023/10/22 06:51:30;;;;;;;;;;;11.30;99.90;;;;;;4861353;29;20337;-85
2023/10/22 06:53:55;;;;;;;;;;;11.30;99.90;;;;;;4861986;29;19931;-90
2023/10/22 06:56:21;;;;;;;;;;;11.30;99.90;;;;;;4861826;29;19924;-85
2023/10/22 06:58:46;;;;;;;;;;;11.30;99.90;;;;;;4862099;29;19928;-86
2023/10/22 07:01:13;;;;;;;;;;;11.30;99.90;;;;;;4831692;29;19931;-88
2023/10/22 07:03:42;;;;;;;;;;;11.30;99.90;;;;;;4847361;29;20018;-86
2023/10/22 07:06:08;;;;;;;;;;;11.30;99.90;;;;;;4861650;29;20378;-85
2023/10/22 07:08:33;;;;;;;;;;;11.30;99.90;;;;;;4861943;29;19924;-84
2023/10/22 07:10:59;;;;;;;;;;;11.30;99.90;;;;;;4862316;29;19924;-84
2023/10/22 07:13:25;;;;;;;;;;;11.30;99.90;;;;;;4861814;29;20240;-85
2023/10/22 07:15:52;;;;;;;;;;;11.40;99.90;;;;;;4861881;29;19931;-86
2023/10/22 07:18:19;;;;;;;;;;;11.40;99.90;;;;;;4862572;29;20368;-85
2023/10/22 07:20:46;;;;;;;;;;;11.40;99.90;;;;;;4862746;29;19924;-84
2023/10/22 07:23:11;;;;;;;;;;;11.40;99.90;;;;;;4861749;29;20011;-88
2023/10/22 07:25:37;;;;;;;;;;;11.40;99.90;;;;;;4861954;29;20023;-90
2023/10/22 07:28:03;;;;;;;;;;;11.40;99.90;;;;;;4846729;29;19924;-86
2023/10/22 07:30:32;;;;;;;;;;;11.50;99.90;;;;;;4862224;29;19930;-84
2023/10/22 07:32:58;;;;;;;;;;;11.50;99.90;;;;;;4861030;29;19928;-86
2023/10/22 07:35:24;;;;;;;;;;;11.50;99.90;;;;;;4846123;29;19930;-83
2023/10/22 07:37:49;;;;;;;;;;;11.50;99.90;;;;;;4861461;29;20003;-85
2023/10/22 07:40:15;;;;;;;;;;;11.50;99.90;;;;;;4861299;29;19992;-84
2023/10/22 07:42:41;;;;;;;;;;;11.60;99.90;;;;;;4861425;29;20354;-86
2023/10/22 07:45:07;;;;;;;;;;;11.60;99.90;;;;;;4862212;29;19975;-83
2023/10/22 07:47:33;;;;;;;;;;;11.60;99.90;;;;;;4862023;29;19924;-84
2023/10/22 07:49:58;;;;;;;;;;;11.70;99.90;;;;;;4862107;29;19933;-84
2023/10/22 07:52:24;;;;;;;;;;;11.70;99.90;;;;;;4862029;29;19924;-86
2023/10/22 07:54:52;;;;;;;;;;;11.70;99.90;;;;;;4860837;29;19924;-83
2023/10/22 07:57:18;;;;;;;;;;;11.70;99.90;;;;;;4860954;29;20004;-84
2023/10/22 07:59:44;;;;;;;;;;;11.70;99.90;;;;;;4860715;29;19924;-85
2023/10/22 08:02:10;;;;;;;;;;;11.80;99.90;;;;;;4845611;29;20400;-83
2023/10/22 08:04:37;;;;;;;;;;;11.80;99.90;;;;;;4861018;29;19972;-84
2023/10/22 08:07:03;;;;;;;;;;;11.80;99.90;;;;;;4860950;29;19931;-84
2023/10/22 08:09:29;;;;;;;;;;;11.80;99.90;;;;;;4861815;29;19924;-84
2023/10/22 08:11:54;;;;;;;;;;;11.90;99.90;;;;;;4861295;29;19946;-85
2023/10/22 08:14:20;;;;;;;;;;;11.90;99.90;;;;;;4861145;29;19930;-83
2023/10/22 08:16:45;;;;;;;;;;;11.90;99.90;;;;;;4844620;29;20284;-87
2023/10/22 08:19:11;;;;;;;;;;;12.00;99.90;;;;;;4860645;29;19924;-84
2023/10/22 08:21:36;;;;;;;;;;;12.10;99.90;;;;;;4860666;29;20404;-84
2023/10/22 08:24:02;;;;;;;;;;;12.10;99.90;;;;;;4861645;29;19924;-88
2023/10/22 08:26:28;;;;;;;;;;;12.20;99.90;;;;;;4860760;29;20411;-85
2023/10/22 08:28:53;;;;;;;;;;;12.20;99.90;;;;;;4846125;29;19931;-85
2023/10/22 08:31:19;;;;;;;;;;;12.30;99.90;;;;;;4860656;29;19928;-83
2023/10/22 08:33:45;;;;;;;;;;;12.50;99.90;;;;;;4861551;29;20279;-84
2023/10/22 08:36:11;;;;;;;;;;;12.60;99.90;;;;;;4830264;29;19931;-84
2023/10/22 08:38:37;;;;;;;;;;;12.70;99.90;;;;;;4860515;29;19924;-85
2023/10/22 08:41:06;;;;;;;;;;;12.70;99.90;;;;;;4860645;29;19984;-85
2023/10/22 08:43:34;;;;;;;;;;;12.70;99.90;;;;;;4860406;29;19928;-89
2023/10/22 08:46:00;;;;;;;;;;;12.60;99.90;;;;;;4861290;29;19940;-84
2023/10/22 08:48:27;;;;;;;;;;;12.50;99.90;;;;;;4860265;29;19931;-87
2023/10/22 08:50:52;;;;;;;;;;;12.60;99.90;;;;;;4844968;29;19957;-86
2023/10/22 08:53:18;;;;;;;;;;;12.50;99.90;;;;;;4860099;29;19928;-85
2023/10/22 08:55:47;;;;;;;;;;;12.60;99.90;;;;;;4845857;29;19931;-84
2023/10/22 08:58:19;;;;;;;;;;;12.60;99.90;;;;;;4860472;29;20316;-87
2023/10/22 09:00:46;;;;;;;;;;;12.70;99.90;;;;;;4860050;29;19924;-87
2023/10/22 09:03:15;;;;;;;;;;;12.80;99.90;;;;;;4860438;29;19924;-85
2023/10/22 09:05:41;;;;;;;;;;;12.90;99.90;;;;;;4845088;29;19924;-86
2023/10/22 09:08:07;;;;;;;;;;;13.00;99.90;;;;;;4844869;29;19925;-84
2023/10/22 09:10:34;;;;;;;;;;;13.10;99.90;;;;;;4861707;29;19931;-86
2023/10/22 09:13:13;;;;;;;;;;;13.10;99.90;;;;;;4848752;29;20004;-86
2023/10/22 09:15:49;;;;;;;;;;;13.20;99.90;;;;;;4865010;29;19974;-85
2023/10/22 09:18:15;;;;;;;;;;;13.20;99.90;;;;;;4864541;29;19963;-85
2023/10/22 09:20:41;;;;;;;;;;;13.30;99.90;;;;;;4863858;29;20022;-84
2023/10/22 09:23:14;;;;;;;;;;;13.30;99.90;;;;;;4848481;29;19932;-84
2023/10/22 09:25:40;;;;;;;;;;;13.50;99.90;;;;;;4848603;29;19924;-85
2023/10/22 09:28:25;;;;;;;;;;;14.10;99.90;;;;;;4864639;29;19924;-85
2023/10/22 09:30:53;;;;;;;;;;;14.40;99.90;;;;;;4863328;29;20394;-85
2023/10/22 09:33:29;;;;;;;;;;;14.30;99.90;;;;;;4862985;29;20268;-86
2023/10/22 09:35:59;;;;;;;;;;;14.60;99.90;;;;;;4864469;29;19924;-85
2023/10/22 09:38:42;;;;;;;;;;;15.10;99.90;;;;;;4863628;29;19931;-84
2023/10/22 09:41:09;;;;;;;;;;;15.80;99.90;;;;;;4848879;29;19925;-86
2023/10/22 09:43:35;;;;;;;;;;;16.30;99.90;;;;;;4863646;29;20252;-84
2023/10/22 09:46:01;;;;;;;;;;;16.70;99.90;;;;;;4864406;29;19956;-85
2023/10/22 09:48:29;;;;;;;;;;;16.90;99.90;;;;;;4864220;29;20015;-84
2023/10/22 09:50:55;;;;;;;;;;;17.00;99.90;;;;;;4863981;29;19925;-85
2023/10/22 09:53:25;;;;;;;;;;;16.90;99.90;;;;;;4864331;29;19925;-84
2023/10/22 09:55:53;;;;;;;;;;;16.60;99.90;;;;;;4864420;29;20352;-85
2023/10/22 09:58:21;;;;;;;;;;;16.20;99.90;;;;;;4863437;29;20347;-85
2023/10/22 10:00:47;;;;;;;;;;;15.70;99.90;;;;;;4864070;29;19924;-84
2023/10/22 10:03:13;;;;;;;;;;;15.50;99.90;;;;;;4864166;29;19930;-84
2023/10/22 10:05:39;;;;;;;;;;;15.40;99.90;;;;;;4863956;29;20328;-86
2023/10/22 10:08:04;;;;;;;;;;;15.40;99.90;;;;;;4862768;29;19924;-85
2023/10/22 10:10:30;;;;;;;;;;;15.40;99.90;;;;;;4863989;29;19924;-85
2023/10/22 10:12:56;;;;;;;;;;;15.40;99.90;;;;;;4863014;29;19928;-85
2023/10/22 10:15:32;;;;;;;;;;;15.30;99.90;;;;;;4847895;29;19967;-86
2023/10/22 10:18:00;;;;;;;;;;;15.20;99.90;;;;;;4863445;29;19924;-85
2023/10/22 10:20:31;;;;;;;;;;;15.20;99.90;;;;;;4862327;29;19924;-85
2023/10/22 10:23:04;;;;;;;;;;;15.10;99.90;;;;;;4861424;29;19924;-85
2023/10/22 10:25:33;;;;;;;;;;;15.00;99.90;;;;;;4862503;29;19924;-86
2023/10/22 10:28:03;;;;;;;;;;;14.80;99.90;;;;;;4863029;29;20277;-85
2023/10/22 10:30:28;;;;;;;;;;;14.80;99.90;;;;;;4863424;29;19928;-83
2023/10/22 10:32:54;;;;;;;;;;;14.80;99.90;;;;;;4862348;29;19924;-86
2023/10/22 10:35:20;;;;;;;;;;;14.80;99.90;;;;;;4862290;29;20352;-85
2023/10/22 10:38:18;;;;;;;;;;;14.80;99.90;;;;;;4862308;29;19931;-84
2023/10/22 10:40:47;;;;;;;;;;;14.80;99.90;;;;;;4822105;29;19931;-86
2023/10/22 10:43:13;;;;;;;;;;;14.70;99.90;;;;;;4863219;29;19924;-85
2023/10/22 10:45:43;;;;;;;;;;;14.60;99.90;;;;;;4863034;29;20489;-85
2023/10/22 10:48:51;;;;;;;;;;;14.50;99.90;;;;;;4862083;29;20371;-85
2023/10/22 10:51:17;;;;;;;;;;;14.40;99.90;;;;;;4788102;29;19926;-88
2023/10/22 10:54:04;;;;;;;;;;;14.30;99.90;;;;;;4773374;30;19925;-85
2023/10/22 10:56:46;;;;;;;;;;;14.20;99.90;;;;;;4836682;29;19960;-83
2023/10/22 10:59:23;;;;;;;;;;;14.20;99.90;;;;;;4862067;29;19924;-86
2023/10/22 11:01:56;;;;;;;;;;;14.20;99.90;;;;;;4863915;29;19928;-84
2023/10/22 11:04:22;;;;;;;;;;;14.30;99.90;;;;;;4862244;29;19928;-84
2023/10/22 11:06:49;;;;;;;;;;;14.40;99.90;;;;;;4861920;29;20381;-85
2023/10/22 11:09:15;;;;;;;;;;;14.40;99.90;;;;;;4862804;29;19967;-84
2023/10/22 11:11:53;;;;;;;;;;;14.40;99.90;;;;;;4861919;29;19978;-85
2023/10/22 11:14:19;;;;;;;;;;;14.30;99.90;;;;;;4862862;29;20420;-84
2023/10/22 11:16:53;;;;;;;;;;;14.20;99.90;;;;;;4861216;29;19924;-84
2023/10/22 11:19:20;;;;;;;;;;;14.20;99.90;;;;;;4862502;29;19976;-85
2023/10/22 11:21:46;;;;;;;;;;;14.10;99.90;;;;;;4862047;29;19924;-83
2023/10/22 11:24:11;;;;;;;;;;;14.00;99.90;;;;;;4861673;29;19924;-83
2023/10/22 11:26:37;;;;;;;;;;;13.90;99.90;;;;;;4862549;29;20111;-86
2023/10/22 11:29:03;;;;;;;;;;;13.80;99.90;;;;;;4861104;29;19947;-88
2023/10/22 11:31:28;;;;;;;;;;;13.80;99.90;;;;;;4861246;29;19925;-84
2023/10/22 11:33:54;;;;;;;;;;;13.80;99.90;;;;;;4845983;29;19951;-84
2023/10/22 11:36:23;;;;;;;;;;;13.80;99.90;;;;;;4861335;29;19931;-84
2023/10/22 11:38:50;;;;;;;;;;;13.90;99.90;;;;;;4862207;29;19928;-87
2023/10/22 11:41:15;;;;;;;;;;;13.80;99.90;;;;;;4861143;29;20367;-87
2023/10/22 11:43:43;;;;;;;;;;;13.80;99.90;;;;;;4861425;29;19931;-84
2023/10/22 11:46:08;;;;;;;;;;;13.80;99.90;;;;;;4861738;29;20265;-83
2023/10/22 11:48:37;;;;;;;;;;;13.80;99.90;;;;;;4861448;29;19943;-85
2023/10/22 11:51:04;;;;;;;;;;;13.80;99.90;;;;;;4862148;29;20308;-84
2023/10/22 11:53:42;;;;;;;;;;;13.80;99.90;;;;;;4862215;29;19924;-85
2023/10/22 11:56:08;;;;;;;;;;;13.80;99.90;;;;;;4862013;29;19928;-86
2023/10/22 11:58:34;;;;;;;;;;;13.80;99.90;;;;;;4861991;29;19947;-85
2023/10/22 12:01:00;;;;;;;;;;;13.80;99.90;;;;;;4861111;29;19924;-85
2023/10/22 12:03:25;;;;;;;;;;;13.80;99.90;;;;;;4861394;29;20045;-90
2023/10/22 12:05:51;;;;;;;;;;;13.70;99.90;;;;;;4831538;29;19925;-86
2023/10/22 12:08:16;;;;;;;;;;;13.70;99.90;;;;;;4861153;29;20345;-84
2023/10/22 12:10:42;;;;;;;;;;;13.70;99.90;;;;;;4860676;29;19924;-86
2023/10/22 12:13:07;;;;;;;;;;;13.70;99.90;;;;;;4861787;29;19975;-84
2023/10/22 12:15:33;;;;;;;;;;;13.80;99.90;;;;;;4862535;29;19924;-84
2023/10/22 12:17:59;;;;;;;;;;;13.80;99.90;;;;;;4862196;29;19924;-84
2023/10/22 12:20:25;;;;;;;;;;;13.80;99.90;;;;;;4861685;29;19930;-84
2023/10/22 12:22:50;;;;;;;;;;;13.90;99.90;;;;;;4860864;29;19928;-84
2023/10/22 12:25:16;;;;;;;;;;;13.90;99.90;;;;;;4861516;29;19931;-85
2023/10/22 12:27:42;;;;;;;;;;;13.90;99.90;;;;;;4860694;29;19924;-84
2023/10/22 12:30:07;;;;;;;;;;;13.90;99.90;;;;;;4876259;29;20436;-86
2023/10/22 12:32:33;;;;;;;;;;;13.90;99.90;;;;;;4861571;29;19928;-85
2023/10/22 12:34:59;;;;;;;;;;;13.80;99.90;;;;;;4861713;29;19979;-84
2023/10/22 12:37:25;;;;;;;;;;;13.80;99.90;;;;;;4860514;29;19925;-85
2023/10/22 12:39:51;;;;;;;;;;;13.80;99.90;;;;;;4862091;29;19931;-83
2023/10/22 12:42:16;;;;;;;;;;;13.80;99.90;;;;;;4861753;29;19924;-85
2023/10/22 12:44:45;;;;;;;;;;;13.80;99.90;;;;;;4861860;29;20022;-84
2023/10/22 12:47:14;;;;;;;;;;;13.80;99.90;;;;;;4864613;29;19928;-86
2023/10/22 12:49:40;;;;;;;;;;;13.70;99.90;;;;;;4864284;29;19924;-85
2023/10/22 12:52:05;;;;;;;;;;;13.80;99.90;;;;;;4864820;29;20005;-85
2023/10/22 12:54:31;;;;;;;;;;;13.80;99.90;;;;;;4865412;29;19924;-83
2023/10/22 12:56:58;;;;;;;;;;;13.90;99.90;;;;;;4864002;29;19924;-83
2023/10/22 12:59:24;;;;;;;;;;;14.00;99.90;;;;;;4865159;29;20386;-84
2023/10/22 13:01:50;;;;;;;;;;;14.20;99.90;;;;;;4864837;29;19924;-85
2023/10/22 13:04:15;;;;;;;;;;;14.40;99.90;;;;;;4864364;29;19971;-87
2023/10/22 13:06:41;;;;;;;;;;;14.60;99.90;;;;;;4864917;29;19935;-85
2023/10/22 13:09:08;;;;;;;;;;;14.60;99.90;;;;;;4863935;29;19930;-85
2023/10/22 13:11:34;;;;;;;;;;;14.60;99.90;;;;;;4863528;29;19924;-85
2023/10/22 13:13:59;;;;;;;;;;;14.60;99.90;;;;;;4864837;29;19931;-84
2023/10/22 13:16:25;;;;;;;;;;;14.60;99.90;;;;;;4863513;29;19928;-83
2023/10/22 13:18:50;;;;;;;;;;;14.50;99.90;;;;;;4864366;29;19981;-83
2023/10/22 13:21:16;;;;;;;;;;;14.40;99.90;;;;;;4864295;29;20265;-87
2023/10/22 13:23:41;;;;;;;;;;;14.20;99.90;;;;;;4848031;29;19928;-84
2023/10/22 13:26:07;;;;;;;;;;;14.20;99.90;;;;;;4864639;29;19992;-84
2023/10/22 13:28:32;;;;;;;;;;;14.10;99.90;;;;;;4864608;29;19935;-85
2023/10/22 13:30:58;;;;;;;;;;;14.10;99.90;;;;;;4863467;29;19947;-86
2023/10/22 13:33:24;;;;;;;;;;;14.00;99.90;;;;;;4864386;29;19934;-85
2023/10/22 13:35:49;;;;;;;;;;;14.00;99.90;;;;;;4864394;29;20270;-84
2023/10/22 13:38:15;;;;;;;;;;;14.00;99.90;;;;;;4863434;29;19928;-84
2023/10/22 13:40:40;;;;;;;;;;;14.00;99.90;;;;;;4864362;29;19977;-86
2023/10/22 13:43:06;;;;;;;;;;;14.00;99.90;;;;;;4864039;29;19970;-85
2023/10/22 13:45:32;;;;;;;;;;;14.00;99.90;;;;;;4864774;29;19928;-84
2023/10/22 13:47:57;;;;;;;;;;;14.00;99.90;;;;;;4864158;29;19932;-84
2023/10/22 13:50:24;;;;;;;;;;;14.10;99.90;;;;;;4864656;29;19928;-84
2023/10/22 13:52:49;;;;;;;;;;;14.10;99.90;;;;;;4863272;29;19975;-84
2023/10/22 13:55:15;;;;;;;;;;;14.20;99.90;;;;;;4864157;29;19935;-85
2023/10/22 13:57:41;;;;;;;;;;;14.40;99.90;;;;;;4863764;29;20376;-84
2023/10/22 14:00:09;;;;;;;;;;;14.40;99.90;;;;;;4864779;29;20380;-84
2023/10/22 14:02:38;;;;;;;;;;;14.30;99.90;;;;;;4863988;29;19951;-84
2023/10/22 14:05:03;;;;;;;;;;;14.30;99.90;;;;;;4863952;29;19928;-84
2023/10/22 14:07:29;;;;;;;;;;;14.20;99.90;;;;;;4864009;29;19935;-83
2023/10/22 14:09:55;;;;;;;;;;;14.10;99.90;;;;;;4847506;29;20340;-84
2023/10/22 14:12:20;;;;;;;;;;;14.00;99.90;;;;;;4863319;29;19928;-84